sensor_id;sensor_type;location;lat;lon;timestamp;P1;durP1;ratioP1;P2;durP2;ratioP2
82703;SDS011;72427;42.000;21.464;2023-12-14T00:00:22;240.77;;;116.35;;
82703;SDS011;72427;42.000;21.464;2023-12-14T00:02:48;232.15;;;120.20;;
82703;SDS011;72427;42.000;21.464;2023-12-14T00:05:14;229.95;;;115.97;;
82703;SDS011;72427;42.000;21.464;2023-12-14T00:07:40;208.88;;;106.07;;
82703;SDS011;72427;42.000;21.464;2023-12-14T00:10:06;203.80;;;95.53;;
82703;SDS011;72427;42.000;21.464;2023-12-14T00:12:33;210.10;;;103.80;;
82703;SDS011;72427;42.000;21.464;2023-12-14T00:14:59;194.55;;;101.80;;
82703;SDS011;72427;42.000;21.464;2023-12-14T00:17:25;182.55;;;96.70;;
82703;SDS011;72427;42.000;21.464;2023-12-14T00:19:51;194.15;;;97.22;;
82703;SDS011;72427;42.000;21.464;2023-12-14T00:22:17;206.05;;;102.20;;
82703;SDS011;72427;42.000;21.464;2023-12-14T00:24:43;206.43;;;102.70;;
82703;SDS011;72427;42.000;21.464;2023-12-14T00:27:09;180.35;;;86.90;;
82703;SDS011;72427;42.000;21.464;2023-12-14T00:29:35;190.98;;;97.57;;
82703;SDS011;72427;42.000;21.464;2023-12-14T00:32:01;228.40;;;117.65;;
82703;SDS011;72427;42.000;21.464;2023-12-14T00:34:27;239.55;;;121.22;;
82703;SDS011;72427;42.000;21.464;2023-12-14T00:36:53;247.88;;;122.90;;
82703;SDS011;72427;42.000;21.464;2023-12-14T00:39:19;236.55;;;122.32;;
82703;SDS011;72427;42.000;21.464;2023-12-14T00:41:45;237.75;;;121.65;;
82703;SDS011;72427;42.000;21.464;2023-12-14T00:44:12;235.90;;;117.35;;
82703;SDS011;72427;42.000;21.464;2023-12-14T00:46:38;221.15;;;105.68;;
82703;SDS011;72427;42.000;21.464;2023-12-14T00:49:04;225.75;;;113.20;;
82703;SDS011;72427;42.000;21.464;2023-12-14T00:51:30;219.52;;;110.10;;
82703;SDS011;72427;42.000;21.464;2023-12-14T00:53:56;222.35;;;105.80;;
82703;SDS011;72427;42.000;21.464;2023-12-14T00:56:22;220.63;;;111.43;;
82703;SDS011;72427;42.000;21.464;2023-12-14T00:58:48;213.82;;;105.88;;
82703;SDS011;72427;42.000;21.464;2023-12-14T01:01:14;216.68;;;105.45;;
82703;SDS011;72427;42.000;21.464;2023-12-14T01:03:40;202.13;;;102.47;;
82703;SDS011;72427;42.000;21.464;2023-12-14T01:06:06;207.80;;;107.55;;
82703;SDS011;72427;42.000;21.464;2023-12-14T01:08:32;210.50;;;107.80;;
82703;SDS011;72427;42.000;21.464;2023-12-14T01:10:58;223.75;;;110.78;;
82703;SDS011;72427;42.000;21.464;2023-12-14T01:13:24;231.68;;;110.80;;
82703;SDS011;72427;42.000;21.464;2023-12-14T01:15:50;212.45;;;110.80;;
82703;SDS011;72427;42.000;21.464;2023-12-14T01:18:16;212.63;;;105.18;;
82703;SDS011;72427;42.000;21.464;2023-12-14T01:20:43;224.20;;;110.38;;
82703;SDS011;72427;42.000;21.464;2023-12-14T01:23:09;220.50;;;111.80;;
82703;SDS011;72427;42.000;21.464;2023-12-14T01:25:35;216.82;;;110.13;;
82703;SDS011;72427;42.000;21.464;2023-12-14T01:28:01;209.00;;;109.10;;
82703;SDS011;72427;42.000;21.464;2023-12-14T01:30:27;214.55;;;102.80;;
82703;SDS011;72427;42.000;21.464;2023-12-14T01:32:53;208.48;;;105.63;;
82703;SDS011;72427;42.000;21.464;2023-12-14T01:35:20;213.75;;;108.40;;
82703;SDS011;72427;42.000;21.464;2023-12-14T01:37:46;227.48;;;116.10;;
82703;SDS011;72427;42.000;21.464;2023-12-14T01:40:12;229.25;;;114.32;;
82703;SDS011;72427;42.000;21.464;2023-12-14T01:42:38;216.75;;;112.65;;
82703;SDS011;72427;42.000;21.464;2023-12-14T01:45:04;208.48;;;97.90;;
82703;SDS011;72427;42.000;21.464;2023-12-14T01:47:31;209.35;;;108.30;;
82703;SDS011;72427;42.000;21.464;2023-12-14T01:49:57;188.73;;;99.65;;
82703;SDS011;72427;42.000;21.464;2023-12-14T01:52:23;187.82;;;98.65;;
82703;SDS011;72427;42.000;21.464;2023-12-14T01:54:49;194.68;;;98.53;;
82703;SDS011;72427;42.000;21.464;2023-12-14T01:57:15;196.48;;;97.25;;
82703;SDS011;72427;42.000;21.464;2023-12-14T01:59:41;195.07;;;98.65;;
82703;SDS011;72427;42.000;21.464;2023-12-14T02:02:07;176.75;;;92.90;;
82703;SDS011;72427;42.000;21.464;2023-12-14T02:04:33;195.02;;;96.82;;
82703;SDS011;72427;42.000;21.464;2023-12-14T02:06:59;199.93;;;94.43;;
82703;SDS011;72427;42.000;21.464;2023-12-14T02:09:25;179.43;;;90.10;;
82703;SDS011;72427;42.000;21.464;2023-12-14T02:11:52;178.75;;;86.90;;
82703;SDS011;72427;42.000;21.464;2023-12-14T02:14:18;170.40;;;91.35;;
82703;SDS011;72427;42.000;21.464;2023-12-14T02:16:47;208.13;;;104.97;;
82703;SDS011;72427;42.000;21.464;2023-12-14T02:19:13;186.35;;;114.40;;
82703;SDS011;72427;42.000;21.464;2023-12-14T02:21:39;170.18;;;79.72;;
82703;SDS011;72427;42.000;21.464;2023-12-14T02:24:05;178.80;;;91.65;;
82703;SDS011;72427;42.000;21.464;2023-12-14T02:26:31;181.23;;;92.25;;
82703;SDS011;72427;42.000;21.464;2023-12-14T02:28:57;168.27;;;85.25;;
82703;SDS011;72427;42.000;21.464;2023-12-14T02:31:23;171.52;;;86.45;;
82703;SDS011;72427;42.000;21.464;2023-12-14T02:33:49;156.60;;;83.97;;
82703;SDS011;72427;42.000;21.464;2023-12-14T02:36:15;163.70;;;80.95;;
82703;SDS011;72427;42.000;21.464;2023-12-14T02:38:41;160.10;;;78.00;;
82703;SDS011;72427;42.000;21.464;2023-12-14T02:41:07;147.20;;;73.80;;
82703;SDS011;72427;42.000;21.464;2023-12-14T02:43:33;149.63;;;72.53;;
82703;SDS011;72427;42.000;21.464;2023-12-14T02:45:59;141.90;;;70.43;;
82703;SDS011;72427;42.000;21.464;2023-12-14T02:48:27;134.32;;;65.80;;
82703;SDS011;72427;42.000;21.464;2023-12-14T02:50:54;134.55;;;65.03;;
82703;SDS011;72427;42.000;21.464;2023-12-14T02:53:20;133.95;;;66.50;;
82703;SDS011;72427;42.000;21.464;2023-12-14T02:55:47;125.35;;;63.35;;
82703;SDS011;72427;42.000;21.464;2023-12-14T02:58:13;120.30;;;61.78;;
82703;SDS011;72427;42.000;21.464;2023-12-14T03:00:39;126.80;;;64.80;;
82703;SDS011;72427;42.000;21.464;2023-12-14T03:03:05;132.68;;;66.40;;
82703;SDS011;72427;42.000;21.464;2023-12-14T03:05:31;130.35;;;67.30;;
82703;SDS011;72427;42.000;21.464;2023-12-14T03:07:57;125.60;;;61.60;;
82703;SDS011;72427;42.000;21.464;2023-12-14T03:10:23;129.38;;;62.05;;
82703;SDS011;72427;42.000;21.464;2023-12-14T03:12:49;127.45;;;61.92;;
82703;SDS011;72427;42.000;21.464;2023-12-14T03:15:17;122.38;;;58.15;;
82703;SDS011;72427;42.000;21.464;2023-12-14T03:17:43;126.15;;;61.85;;
82703;SDS011;72427;42.000;21.464;2023-12-14T03:20:10;128.52;;;66.57;;
82703;SDS011;72427;42.000;21.464;2023-12-14T03:22:36;130.52;;;64.47;;
82703;SDS011;72427;42.000;21.464;2023-12-14T03:25:03;122.60;;;57.85;;
82703;SDS011;72427;42.000;21.464;2023-12-14T03:27:29;122.55;;;66.13;;
82703;SDS011;72427;42.000;21.464;2023-12-14T03:29:55;135.45;;;62.22;;
82703;SDS011;72427;42.000;21.464;2023-12-14T03:32:21;129.82;;;64.05;;
82703;SDS011;72427;42.000;21.464;2023-12-14T03:34:47;124.38;;;59.72;;
82703;SDS011;72427;42.000;21.464;2023-12-14T03:37:13;119.50;;;59.15;;
82703;SDS011;72427;42.000;21.464;2023-12-14T03:39:39;123.78;;;58.72;;
82703;SDS011;72427;42.000;21.464;2023-12-14T03:42:05;127.05;;;59.10;;
82703;SDS011;72427;42.000;21.464;2023-12-14T03:44:31;109.68;;;53.88;;
82703;SDS011;72427;42.000;21.464;2023-12-14T03:46:58;117.57;;;57.75;;
82703;SDS011;72427;42.000;21.464;2023-12-14T03:49:25;120.93;;;58.63;;
82703;SDS011;72427;42.000;21.464;2023-12-14T03:51:51;118.03;;;57.40;;
82703;SDS011;72427;42.000;21.464;2023-12-14T03:54:17;113.00;;;55.30;;
82703;SDS011;72427;42.000;21.464;2023-12-14T03:56:43;112.75;;;55.83;;
82703;SDS011;72427;42.000;21.464;2023-12-14T03:59:09;126.53;;;58.55;;
82703;SDS011;72427;42.000;21.464;2023-12-14T04:01:35;120.15;;;58.50;;
82703;SDS011;72427;42.000;21.464;2023-12-14T04:04:04;115.50;;;60.13;;
82703;SDS011;72427;42.000;21.464;2023-12-14T04:06:30;110.75;;;55.28;;
82703;SDS011;72427;42.000;21.464;2023-12-14T04:08:57;115.65;;;57.65;;
82703;SDS011;72427;42.000;21.464;2023-12-14T04:11:23;106.20;;;56.33;;
82703;SDS011;72427;42.000;21.464;2023-12-14T04:13:49;110.70;;;55.58;;
82703;SDS011;72427;42.000;21.464;2023-12-14T04:16:15;115.43;;;59.78;;
82703;SDS011;72427;42.000;21.464;2023-12-14T04:18:44;100.68;;;53.03;;
82703;SDS011;72427;42.000;21.464;2023-12-14T04:21:10;108.45;;;54.05;;
82703;SDS011;72427;42.000;21.464;2023-12-14T04:23:36;102.43;;;53.47;;
82703;SDS011;72427;42.000;21.464;2023-12-14T04:26:03;116.80;;;57.55;;
82703;SDS011;72427;42.000;21.464;2023-12-14T04:28:29;112.68;;;56.00;;
82703;SDS011;72427;42.000;21.464;2023-12-14T04:30:55;117.88;;;54.70;;
82703;SDS011;72427;42.000;21.464;2023-12-14T04:33:21;158.30;;;71.47;;
82703;SDS011;72427;42.000;21.464;2023-12-14T04:35:47;277.90;;;111.38;;
82703;SDS011;72427;42.000;21.464;2023-12-14T04:38:13;190.98;;;78.78;;
82703;SDS011;72427;42.000;21.464;2023-12-14T04:40:39;152.57;;;65.47;;
82703;SDS011;72427;42.000;21.464;2023-12-14T04:43:06;142.85;;;61.80;;
82703;SDS011;72427;42.000;21.464;2023-12-14T04:45:32;118.57;;;55.85;;
82703;SDS011;72427;42.000;21.464;2023-12-14T04:47:58;112.65;;;54.92;;
82703;SDS011;72427;42.000;21.464;2023-12-14T04:50:24;120.53;;;61.28;;
82703;SDS011;72427;42.000;21.464;2023-12-14T04:52:50;116.22;;;54.88;;
82703;SDS011;72427;42.000;21.464;2023-12-14T04:55:16;113.43;;;57.08;;
82703;SDS011;72427;42.000;21.464;2023-12-14T04:57:42;120.53;;;57.25;;
82703;SDS011;72427;42.000;21.464;2023-12-14T05:00:08;118.20;;;58.08;;
82703;SDS011;72427;42.000;21.464;2023-12-14T05:02:35;117.40;;;56.30;;
82703;SDS011;72427;42.000;21.464;2023-12-14T05:05:01;135.45;;;61.53;;
82703;SDS011;72427;42.000;21.464;2023-12-14T05:07:27;125.00;;;60.72;;
82703;SDS011;72427;42.000;21.464;2023-12-14T05:09:55;126.13;;;58.20;;
82703;SDS011;72427;42.000;21.464;2023-12-14T05:12:21;120.55;;;59.75;;
82703;SDS011;72427;42.000;21.464;2023-12-14T05:14:49;124.25;;;60.78;;
82703;SDS011;72427;42.000;21.464;2023-12-14T05:17:15;120.95;;;59.70;;
82703;SDS011;72427;42.000;21.464;2023-12-14T05:19:41;131.68;;;62.75;;
82703;SDS011;72427;42.000;21.464;2023-12-14T05:22:07;125.60;;;61.63;;
82703;SDS011;72427;42.000;21.464;2023-12-14T05:24:33;114.35;;;58.78;;
82703;SDS011;72427;42.000;21.464;2023-12-14T05:26:59;118.63;;;59.83;;
82703;SDS011;72427;42.000;21.464;2023-12-14T05:29:25;131.93;;;61.92;;
82703;SDS011;72427;42.000;21.464;2023-12-14T05:31:51;139.40;;;65.28;;
82703;SDS011;72427;42.000;21.464;2023-12-14T05:34:17;120.88;;;61.70;;
82703;SDS011;72427;42.000;21.464;2023-12-14T05:36:43;131.38;;;62.60;;
82703;SDS011;72427;42.000;21.464;2023-12-14T05:39:09;120.85;;;60.58;;
82703;SDS011;72427;42.000;21.464;2023-12-14T05:41:41;140.18;;;66.82;;
82703;SDS011;72427;42.000;21.464;2023-12-14T05:44:07;137.00;;;63.80;;
82703;SDS011;72427;42.000;21.464;2023-12-14T05:46:34;125.43;;;63.90;;
82703;SDS011;72427;42.000;21.464;2023-12-14T05:49:01;137.95;;;65.93;;
82703;SDS011;72427;42.000;21.464;2023-12-14T05:51:29;137.85;;;65.03;;
82703;SDS011;72427;42.000;21.464;2023-12-14T05:53:55;145.57;;;65.85;;
82703;SDS011;72427;42.000;21.464;2023-12-14T05:56:22;132.30;;;61.67;;
82703;SDS011;72427;42.000;21.464;2023-12-14T05:58:48;131.35;;;62.78;;
82703;SDS011;72427;42.000;21.464;2023-12-14T06:01:16;147.35;;;67.55;;
82703;SDS011;72427;42.000;21.464;2023-12-14T06:03:42;133.32;;;63.47;;
82703;SDS011;72427;42.000;21.464;2023-12-14T06:06:09;133.05;;;67.45;;
82703;SDS011;72427;42.000;21.464;2023-12-14T06:08:35;142.95;;;66.95;;
82703;SDS011;72427;42.000;21.464;2023-12-14T06:11:01;125.95;;;62.45;;
82703;SDS011;72427;42.000;21.464;2023-12-14T06:13:27;121.75;;;60.17;;
82703;SDS011;72427;42.000;21.464;2023-12-14T06:15:53;120.38;;;59.85;;
82703;SDS011;72427;42.000;21.464;2023-12-14T06:18:19;125.72;;;59.90;;
82703;SDS011;72427;42.000;21.464;2023-12-14T06:20:45;111.05;;;57.15;;
82703;SDS011;72427;42.000;21.464;2023-12-14T06:23:11;118.18;;;60.10;;
82703;SDS011;72427;42.000;21.464;2023-12-14T06:25:37;117.13;;;58.92;;
82703;SDS011;72427;42.000;21.464;2023-12-14T06:28:03;122.63;;;57.42;;
82703;SDS011;72427;42.000;21.464;2023-12-14T06:30:29;108.57;;;56.00;;
82703;SDS011;72427;42.000;21.464;2023-12-14T06:32:56;113.82;;;54.13;;
82703;SDS011;72427;42.000;21.464;2023-12-14T06:35:22;118.55;;;58.65;;
82703;SDS011;72427;42.000;21.464;2023-12-14T06:37:48;110.60;;;55.13;;
82703;SDS011;72427;42.000;21.464;2023-12-14T06:40:14;107.63;;;54.13;;
82703;SDS011;72427;42.000;21.464;2023-12-14T06:42:40;113.97;;;54.95;;
82703;SDS011;72427;42.000;21.464;2023-12-14T06:45:07;115.25;;;58.17;;
82703;SDS011;72427;42.000;21.464;2023-12-14T06:47:35;114.15;;;57.42;;
82703;SDS011;72427;42.000;21.464;2023-12-14T06:50:01;119.93;;;58.08;;
82703;SDS011;72427;42.000;21.464;2023-12-14T06:52:27;127.93;;;57.70;;
82703;SDS011;72427;42.000;21.464;2023-12-14T06:54:53;114.85;;;58.10;;
82703;SDS011;72427;42.000;21.464;2023-12-14T06:57:19;122.15;;;60.28;;
82703;SDS011;72427;42.000;21.464;2023-12-14T06:59:45;115.43;;;55.08;;
82703;SDS011;72427;42.000;21.464;2023-12-14T07:02:11;121.65;;;57.72;;
82703;SDS011;72427;42.000;21.464;2023-12-14T07:04:37;111.43;;;57.15;;
82703;SDS011;72427;42.000;21.464;2023-12-14T07:07:03;113.85;;;54.78;;
82703;SDS011;72427;42.000;21.464;2023-12-14T07:09:29;123.55;;;61.95;;
82703;SDS011;72427;42.000;21.464;2023-12-14T07:11:55;126.45;;;64.45;;
82703;SDS011;72427;42.000;21.464;2023-12-14T07:14:21;124.13;;;62.38;;
82703;SDS011;72427;42.000;21.464;2023-12-14T07:16:48;123.88;;;62.63;;
82703;SDS011;72427;42.000;21.464;2023-12-14T07:19:14;135.15;;;64.22;;
82703;SDS011;72427;42.000;21.464;2023-12-14T07:21:40;134.05;;;62.40;;
82703;SDS011;72427;42.000;21.464;2023-12-14T07:24:06;165.05;;;83.43;;
82703;SDS011;72427;42.000;21.464;2023-12-14T07:26:32;155.85;;;75.07;;
82703;SDS011;72427;42.000;21.464;2023-12-14T07:28:58;164.18;;;76.63;;
82703;SDS011;72427;42.000;21.464;2023-12-14T07:31:24;146.80;;;73.30;;
82703;SDS011;72427;42.000;21.464;2023-12-14T07:33:53;137.80;;;68.18;;
82703;SDS011;72427;42.000;21.464;2023-12-14T07:36:19;142.55;;;68.95;;
82703;SDS011;72427;42.000;21.464;2023-12-14T07:38:45;130.30;;;66.20;;
82703;SDS011;72427;42.000;21.464;2023-12-14T07:41:11;135.90;;;66.40;;
82703;SDS011;72427;42.000;21.464;2023-12-14T07:43:37;134.60;;;68.55;;
82703;SDS011;72427;42.000;21.464;2023-12-14T07:46:03;135.63;;;69.97;;
82703;SDS011;72427;42.000;21.464;2023-12-14T07:48:29;131.57;;;68.78;;
82703;SDS011;72427;42.000;21.464;2023-12-14T07:50:55;142.10;;;71.15;;
82703;SDS011;72427;42.000;21.464;2023-12-14T07:53:21;134.05;;;66.78;;
82703;SDS011;72427;42.000;21.464;2023-12-14T07:55:47;127.45;;;65.32;;
82703;SDS011;72427;42.000;21.464;2023-12-14T07:58:13;140.82;;;70.53;;
82703;SDS011;72427;42.000;21.464;2023-12-14T08:00:39;136.00;;;67.07;;
82703;SDS011;72427;42.000;21.464;2023-12-14T08:03:06;144.93;;;66.32;;
82703;SDS011;72427;42.000;21.464;2023-12-14T08:05:32;144.35;;;69.45;;
82703;SDS011;72427;42.000;21.464;2023-12-14T08:07:58;148.70;;;74.35;;
82703;SDS011;72427;42.000;21.464;2023-12-14T08:10:24;149.43;;;73.00;;
82703;SDS011;72427;42.000;21.464;2023-12-14T08:12:50;136.88;;;67.35;;
82703;SDS011;72427;42.000;21.464;2023-12-14T08:15:17;130.90;;;66.68;;
82703;SDS011;72427;42.000;21.464;2023-12-14T08:17:43;156.23;;;78.93;;
82703;SDS011;72427;42.000;21.464;2023-12-14T08:20:09;132.32;;;69.68;;
82703;SDS011;72427;42.000;21.464;2023-12-14T08:22:37;131.00;;;68.13;;
82703;SDS011;72427;42.000;21.464;2023-12-14T08:25:09;128.65;;;68.88;;
82703;SDS011;72427;42.000;21.464;2023-12-14T08:27:35;138.48;;;70.45;;
82703;SDS011;72427;42.000;21.464;2023-12-14T08:30:01;130.18;;;67.88;;
82703;SDS011;72427;42.000;21.464;2023-12-14T08:32:27;122.55;;;65.75;;
82703;SDS011;72427;42.000;21.464;2023-12-14T08:34:53;127.15;;;65.13;;
82703;SDS011;72427;42.000;21.464;2023-12-14T08:37:19;135.77;;;70.43;;
82703;SDS011;72427;42.000;21.464;2023-12-14T08:39:45;124.40;;;66.47;;
82703;SDS011;72427;42.000;21.464;2023-12-14T08:42:11;129.80;;;69.68;;
82703;SDS011;72427;42.000;21.464;2023-12-14T08:44:40;149.20;;;76.78;;
82703;SDS011;72427;42.000;21.464;2023-12-14T08:47:06;146.20;;;80.43;;
82703;SDS011;72427;42.000;21.464;2023-12-14T08:49:34;147.50;;;79.13;;
82703;SDS011;72427;42.000;21.464;2023-12-14T08:52:00;154.90;;;83.07;;
82703;SDS011;72427;42.000;21.464;2023-12-14T08:54:26;154.10;;;81.95;;
82703;SDS011;72427;42.000;21.464;2023-12-14T08:56:53;152.85;;;84.20;;
82703;SDS011;72427;42.000;21.464;2023-12-14T08:59:19;158.88;;;85.03;;
82703;SDS011;72427;42.000;21.464;2023-12-14T09:01:45;140.88;;;77.40;;
82703;SDS011;72427;42.000;21.464;2023-12-14T09:04:11;137.00;;;76.63;;
82703;SDS011;72427;42.000;21.464;2023-12-14T09:06:38;140.25;;;78.70;;
82703;SDS011;72427;42.000;21.464;2023-12-14T09:09:07;148.77;;;82.45;;
82703;SDS011;72427;42.000;21.464;2023-12-14T09:11:33;152.68;;;86.38;;
82703;SDS011;72427;42.000;21.464;2023-12-14T09:14:01;143.60;;;80.22;;
82703;SDS011;72427;42.000;21.464;2023-12-14T09:16:28;163.93;;;87.97;;
82703;SDS011;72427;42.000;21.464;2023-12-14T09:18:54;151.35;;;83.50;;
82703;SDS011;72427;42.000;21.464;2023-12-14T09:21:20;153.60;;;83.88;;
82703;SDS011;72427;42.000;21.464;2023-12-14T09:23:46;164.18;;;85.40;;
82703;SDS011;72427;42.000;21.464;2023-12-14T09:26:13;143.77;;;78.32;;
82703;SDS011;72427;42.000;21.464;2023-12-14T09:28:40;144.00;;;79.72;;
82703;SDS011;72427;42.000;21.464;2023-12-14T09:31:07;137.55;;;76.00;;
82703;SDS011;72427;42.000;21.464;2023-12-14T09:33:33;126.95;;;67.93;;
82703;SDS011;72427;42.000;21.464;2023-12-14T09:35:59;127.57;;;67.38;;
82703;SDS011;72427;42.000;21.464;2023-12-14T09:38:25;129.63;;;68.35;;
82703;SDS011;72427;42.000;21.464;2023-12-14T09:40:52;125.30;;;64.63;;
82703;SDS011;72427;42.000;21.464;2023-12-14T09:43:18;123.95;;;65.50;;
82703;SDS011;72427;42.000;21.464;2023-12-14T09:45:45;165.13;;;87.82;;
82703;SDS011;72427;42.000;21.464;2023-12-14T09:48:12;162.45;;;86.40;;
82703;SDS011;72427;42.000;21.464;2023-12-14T09:50:39;151.05;;;87.20;;
82703;SDS011;72427;42.000;21.464;2023-12-14T09:53:05;164.43;;;96.40;;
82703;SDS011;72427;42.000;21.464;2023-12-14T09:55:32;150.05;;;87.97;;
82703;SDS011;72427;42.000;21.464;2023-12-14T09:57:58;153.85;;;92.80;;
82703;SDS011;72427;42.000;21.464;2023-12-14T10:00:37;132.20;;;76.57;;
82703;SDS011;72427;42.000;21.464;2023-12-14T10:03:22;124.97;;;73.60;;
82703;SDS011;72427;42.000;21.464;2023-12-14T10:05:49;126.82;;;71.32;;
82703;SDS011;72427;42.000;21.464;2023-12-14T10:08:16;121.95;;;69.70;;
82703;SDS011;72427;42.000;21.464;2023-12-14T10:10:42;114.53;;;70.07;;
82703;SDS011;72427;42.000;21.464;2023-12-14T10:13:08;100.40;;;60.83;;
82703;SDS011;72427;42.000;21.464;2023-12-14T10:15:41;91.70;;;57.45;;
82703;SDS011;72427;42.000;21.464;2023-12-14T10:18:08;89.60;;;54.40;;
82703;SDS011;72427;42.000;21.464;2023-12-14T10:20:34;93.57;;;57.80;;
82703;SDS011;72427;42.000;21.464;2023-12-14T10:23:02;110.85;;;70.18;;
82703;SDS011;72427;42.000;21.464;2023-12-14T10:25:28;144.98;;;94.10;;
82703;SDS011;72427;42.000;21.464;2023-12-14T10:27:55;133.23;;;81.75;;
82703;SDS011;72427;42.000;21.464;2023-12-14T10:30:22;123.28;;;77.82;;
82703;SDS011;72427;42.000;21.464;2023-12-14T10:32:49;117.32;;;76.82;;
82703;SDS011;72427;42.000;21.464;2023-12-14T10:35:16;116.60;;;72.90;;
82703;SDS011;72427;42.000;21.464;2023-12-14T10:37:44;114.40;;;73.82;;
82703;SDS011;72427;42.000;21.464;2023-12-14T10:40:13;104.75;;;68.40;;
82703;SDS011;72427;42.000;21.464;2023-12-14T10:42:44;109.57;;;64.75;;
82703;SDS011;72427;42.000;21.464;2023-12-14T10:45:13;86.70;;;53.33;;
82703;SDS011;72427;42.000;21.464;2023-12-14T10:47:44;105.90;;;63.75;;
82703;SDS011;72427;42.000;21.464;2023-12-14T10:50:11;122.90;;;72.38;;
82703;SDS011;72427;42.000;21.464;2023-12-14T10:52:38;116.18;;;67.75;;
82703;SDS011;72427;42.000;21.464;2023-12-14T10:55:27;125.35;;;77.00;;
82703;SDS011;72427;42.000;21.464;2023-12-14T10:57:51;127.85;;;79.15;;
82703;SDS011;72427;42.000;21.464;2023-12-14T11:00:18;135.25;;;79.75;;
82703;SDS011;72427;42.000;21.464;2023-12-14T11:02:47;125.93;;;80.47;;
82703;SDS011;72427;42.000;21.464;2023-12-14T11:05:14;84.32;;;52.00;;
82703;SDS011;72427;42.000;21.464;2023-12-14T11:12:55;68.90;;;43.92;;
82703;SDS011;72427;42.000;21.464;2023-12-14T11:15:22;77.85;;;44.67;;
82703;SDS011;72427;42.000;21.464;2023-12-14T11:23:15;58.40;;;33.28;;
82703;SDS011;72427;42.000;21.464;2023-12-14T11:25:48;60.22;;;32.47;;
82703;SDS011;72427;42.000;21.464;2023-12-14T11:28:15;53.47;;;31.02;;
82703;SDS011;72427;42.000;21.464;2023-12-14T11:30:43;51.45;;;32.30;;
82703;SDS011;72427;42.000;21.464;2023-12-14T11:33:10;45.83;;;26.27;;
82703;SDS011;72427;42.000;21.464;2023-12-14T11:35:36;42.25;;;26.23;;
82703;SDS011;72427;42.000;21.464;2023-12-14T11:38:02;48.50;;;26.52;;
82703;SDS011;72427;42.000;21.464;2023-12-14T11:40:35;40.58;;;23.48;;
82703;SDS011;72427;42.000;21.464;2023-12-14T11:43:02;34.47;;;19.08;;
82703;SDS011;72427;42.000;21.464;2023-12-14T11:45:33;40.72;;;20.70;;
82703;SDS011;72427;42.000;21.464;2023-12-14T11:47:59;41.10;;;23.70;;
82703;SDS011;72427;42.000;21.464;2023-12-14T11:50:27;48.50;;;26.10;;
82703;SDS011;72427;42.000;21.464;2023-12-14T11:52:53;51.13;;;27.10;;
82703;SDS011;72427;42.000;21.464;2023-12-14T11:55:19;51.13;;;25.13;;
82703;SDS011;72427;42.000;21.464;2023-12-14T11:57:47;59.20;;;31.73;;
82703;SDS011;72427;42.000;21.464;2023-12-14T12:00:13;48.20;;;24.15;;
82703;SDS011;72427;42.000;21.464;2023-12-14T12:02:39;52.83;;;26.55;;
82703;SDS011;72427;42.000;21.464;2023-12-14T12:05:06;53.83;;;26.63;;
82703;SDS011;72427;42.000;21.464;2023-12-14T12:07:32;53.88;;;27.33;;
82703;SDS011;72427;42.000;21.464;2023-12-14T12:09:58;47.92;;;22.08;;
82703;SDS011;72427;42.000;21.464;2023-12-14T12:12:25;66.38;;;32.30;;
82703;SDS011;72427;42.000;21.464;2023-12-14T12:14:51;57.38;;;32.63;;
82703;SDS011;72427;42.000;21.464;2023-12-14T12:17:19;61.83;;;37.40;;
82703;SDS011;72427;42.000;21.464;2023-12-14T12:19:45;68.32;;;39.50;;
82703;SDS011;72427;42.000;21.464;2023-12-14T12:22:11;69.82;;;40.05;;
82703;SDS011;72427;42.000;21.464;2023-12-14T12:24:38;67.22;;;39.65;;
82703;SDS011;72427;42.000;21.464;2023-12-14T12:27:04;78.57;;;43.13;;
82703;SDS011;72427;42.000;21.464;2023-12-14T12:29:30;70.80;;;42.30;;
82703;SDS011;72427;42.000;21.464;2023-12-14T12:31:56;76.13;;;43.42;;
82703;SDS011;72427;42.000;21.464;2023-12-14T12:34:22;75.35;;;40.08;;
82703;SDS011;72427;42.000;21.464;2023-12-14T12:36:48;76.63;;;40.55;;
82703;SDS011;72427;42.000;21.464;2023-12-14T12:39:15;69.47;;;40.42;;
82703;SDS011;72427;42.000;21.464;2023-12-14T12:41:42;77.40;;;41.42;;
82703;SDS011;72427;42.000;21.464;2023-12-14T12:44:08;66.65;;;37.67;;
82703;SDS011;72427;42.000;21.464;2023-12-14T12:46:34;68.18;;;36.95;;
82703;SDS011;72427;42.000;21.464;2023-12-14T12:49:01;67.95;;;37.33;;
82703;SDS011;72427;42.000;21.464;2023-12-14T12:51:27;73.00;;;38.67;;
82703;SDS011;72427;42.000;21.464;2023-12-14T12:53:54;59.28;;;35.25;;
82703;SDS011;72427;42.000;21.464;2023-12-14T12:56:22;69.38;;;36.42;;
82703;SDS011;72427;42.000;21.464;2023-12-14T12:58:49;71.45;;;41.67;;
82703;SDS011;72427;42.000;21.464;2023-12-14T13:01:17;72.75;;;37.58;;
82703;SDS011;72427;42.000;21.464;2023-12-14T13:03:43;71.10;;;37.78;;
82703;SDS011;72427;42.000;21.464;2023-12-14T13:06:09;65.68;;;38.10;;
82703;SDS011;72427;42.000;21.464;2023-12-14T13:08:35;62.95;;;36.65;;
82703;SDS011;72427;42.000;21.464;2023-12-14T13:11:01;58.97;;;33.42;;
82703;SDS011;72427;42.000;21.464;2023-12-14T13:13:27;63.40;;;36.17;;
82703;SDS011;72427;42.000;21.464;2023-12-14T13:15:53;60.70;;;33.22;;
82703;SDS011;72427;42.000;21.464;2023-12-14T13:18:19;60.58;;;34.95;;
82703;SDS011;72427;42.000;21.464;2023-12-14T13:20:45;55.90;;;32.97;;
82703;SDS011;72427;42.000;21.464;2023-12-14T13:23:11;55.55;;;30.08;;
82703;SDS011;72427;42.000;21.464;2023-12-14T13:25:37;35.22;;;18.10;;
82703;SDS011;72427;42.000;21.464;2023-12-14T13:28:04;28.38;;;13.13;;
82703;SDS011;72427;42.000;21.464;2023-12-14T13:30:30;19.95;;;9.05;;
82703;SDS011;72427;42.000;21.464;2023-12-14T13:32:57;17.50;;;8.27;;
82703;SDS011;72427;42.000;21.464;2023-12-14T13:35:23;16.45;;;8.27;;
82703;SDS011;72427;42.000;21.464;2023-12-14T13:37:49;14.07;;;6.93;;
82703;SDS011;72427;42.000;21.464;2023-12-14T13:40:15;15.05;;;6.75;;
82703;SDS011;72427;42.000;21.464;2023-12-14T13:42:42;12.77;;;5.28;;
82703;SDS011;72427;42.000;21.464;2023-12-14T13:45:08;16.23;;;6.82;;
82703;SDS011;72427;42.000;21.464;2023-12-14T13:47:34;13.07;;;5.82;;
82703;SDS011;72427;42.000;21.464;2023-12-14T13:50:01;15.93;;;5.45;;
82703;SDS011;72427;42.000;21.464;2023-12-14T13:52:29;8.65;;;3.85;;
82703;SDS011;72427;42.000;21.464;2023-12-14T13:54:55;15.23;;;4.88;;
82703;SDS011;72427;42.000;21.464;2023-12-14T13:57:24;7.05;;;3.25;;
82703;SDS011;72427;42.000;21.464;2023-12-14T13:59:50;10.88;;;2.90;;
82703;SDS011;72427;42.000;21.464;2023-12-14T14:02:16;6.82;;;2.78;;
82703;SDS011;72427;42.000;21.464;2023-12-14T14:04:42;9.20;;;3.10;;